Time;durP1;ratioP1;P1;durP2;ratioP2;P2;SDS_P1;SDS_P2;PMS_P1;PMS_P2;Temp;Humidity;BMP_temperature;BMP_pressure;BME280_temperature;BME280_humidity;BME280_pressure;Samples;Min_cycle;Max_cycle;Signal;HPM_P1;HPM_P2
2022/07/26 00:01:48;;;;;;;8.37;2.13;;;25.70;58.70;;;;;;5071228;28;20457;-78
2022/07/26 00:04:17;;;;;;;6.60;2.17;;;26.00;57.30;;;;;;5075792;28;20420;-78
2022/07/26 00:06:45;;;;;;;6.20;2.33;;;26.30;56.00;;;;;;5076290;28;20512;-78
2022/07/26 00:09:13;;;;;;;9.30;2.63;;;26.50;55.30;;;;;;5076448;28;20511;-77
2022/07/26 00:11:40;;;;;;;5.53;2.13;;;26.70;54.60;;;;;;5074967;28;20440;-77
2022/07/26 00:14:08;;;;;;;8.80;1.90;;;26.90;54.10;;;;;;5070710;28;20442;-78
2022/07/26 00:16:37;;;;;;;7.47;2.40;;;27.00;53.60;;;;;;5073453;28;20458;-78
2022/07/26 00:19:06;;;;;;;5.63;1.90;;;27.00;53.20;;;;;;5076789;28;20449;-78
2022/07/26 00:21:36;;;;;;;4.23;1.70;;;27.20;52.70;;;;;;5076528;28;20471;-78
2022/07/26 00:24:08;;;;;;;3.13;1.50;;;27.30;52.40;;;;;;5076988;28;20436;-78
2022/07/26 00:26:36;;;;;;;3.97;1.87;;;27.40;52.00;;;;;;5075619;28;20457;-78
2022/07/26 00:29:04;;;;;;;3.40;1.80;;;27.40;51.70;;;;;;5076591;28;20466;-78
2022/07/26 00:31:32;;;;;;;6.77;1.97;;;27.50;51.60;;;;;;5074705;28;20529;-78
2022/07/26 00:34:00;;;;;;;5.07;1.80;;;27.50;51.40;;;;;;5075045;28;20526;-78
2022/07/26 00:36:28;;;;;;;7.83;2.00;;;27.60;51.20;;;;;;5077511;28;20495;-79
2022/07/26 00:38:57;;;;;;;2.83;1.57;;;27.60;51.00;;;;;;5082227;28;20501;-79
2022/07/26 00:41:25;;;;;;;7.80;1.90;;;27.70;50.60;;;;;;5083244;28;20527;-79
2022/07/26 00:43:54;;;;;;;4.30;1.70;;;27.70;50.50;;;;;;5082725;28;20515;-79
2022/07/26 00:46:22;;;;;;;2.57;1.70;;;27.70;50.30;;;;;;5079800;28;20514;-78
2022/07/26 00:48:50;;;;;;;4.93;1.90;;;27.70;50.20;;;;;;5078797;28;20534;-79
2022/07/26 00:51:19;;;;;;;5.73;1.77;;;27.70;50.10;;;;;;5079957;28;20445;-79
2022/07/26 00:53:47;;;;;;;3.13;1.63;;;27.80;49.90;;;;;;5077080;28;20436;-78
2022/07/26 00:56:16;;;;;;;4.80;1.97;;;27.80;49.90;;;;;;5075799;28;20453;-78
2022/07/26 00:58:44;;;;;;;4.07;1.50;;;27.80;49.70;;;;;;5076193;28;20791;-78
2022/07/26 01:01:12;;;;;;;2.23;1.27;;;27.80;49.50;;;;;;5073531;28;20419;-78
2022/07/26 01:03:40;;;;;;;3.40;1.47;;;27.80;49.60;;;;;;5076270;28;20468;-78
2022/07/26 01:06:08;;;;;;;3.30;1.30;;;27.80;49.20;;;;;;5075217;28;20464;-78
2022/07/26 01:08:36;;;;;;;2.30;1.60;;;27.80;49.40;;;;;;5074992;28;20466;-78
2022/07/26 01:11:04;;;;;;;2.97;1.40;;;27.80;49.20;;;;;;5075540;28;20531;-78
2022/07/26 01:13:34;;;;;;;4.07;1.60;;;27.80;49.20;;;;;;5076724;28;20472;-78
2022/07/26 01:16:02;;;;;;;5.50;1.40;;;27.80;49.00;;;;;;5078628;28;20507;-78
2022/07/26 01:18:30;;;;;;;4.90;1.90;;;27.80;49.00;;;;;;5078412;28;20412;-78
2022/07/26 01:20:58;;;;;;;2.37;1.40;;;27.80;48.90;;;;;;5078291;28;20540;-78
2022/07/26 01:23:28;;;;;;;1.50;1.40;;;27.80;49.00;;;;;;5077625;28;20451;-78
2022/07/26 01:25:58;;;;;;;2.77;1.63;;;27.90;48.90;;;;;;5076819;28;20462;-79
2022/07/26 01:28:27;;;;;;;4.20;1.50;;;27.90;48.80;;;;;;5061613;28;20455;-78
2022/07/26 01:30:55;;;;;;;1.73;1.63;;;27.90;48.60;;;;;;5057229;28;20858;-78
2022/07/26 01:33:26;;;;;;;1.57;1.40;;;27.90;48.60;;;;;;5057151;28;20521;-79
2022/07/26 01:35:54;;;;;;;1.73;1.40;;;27.90;48.60;;;;;;5056687;28;20489;-78
2022/07/26 01:38:22;;;;;;;5.20;1.60;;;27.90;48.40;;;;;;5056002;28;20500;-79
2022/07/26 01:40:51;;;;;;;2.10;1.40;;;27.90;48.40;;;;;;5061518;28;20447;-78
2022/07/26 01:43:19;;;;;;;2.10;1.40;;;27.80;48.40;;;;;;5069753;28;20425;-78
2022/07/26 01:45:47;;;;;;;2.70;1.47;;;27.80;48.20;;;;;;5055760;28;20417;-78
2022/07/26 01:48:15;;;;;;;4.50;1.93;;;27.90;48.30;;;;;;5056216;28;20478;-78
2022/07/26 01:50:42;;;;;;;2.00;1.50;;;27.90;48.40;;;;;;5055883;28;20862;-78
2022/07/26 01:53:10;;;;;;;2.90;1.40;;;27.80;48.20;;;;;;5055483;28;20409;-78
2022/07/26 01:55:38;;;;;;;2.20;1.23;;;27.80;48.10;;;;;;5055303;28;20502;-78
2022/07/26 01:58:07;;;;;;;3.90;1.70;;;27.80;48.20;;;;;;5064705;28;20431;-78
2022/07/26 02:00:35;;;;;;;2.50;1.83;;;27.80;48.20;;;;;;5066754;28;20444;-78
2022/07/26 02:03:03;;;;;;;2.57;1.43;;;27.80;48.20;;;;;;5055702;28;20512;-78
2022/07/26 02:05:31;;;;;;;4.63;1.67;;;27.80;48.10;;;;;;5055214;28;20481;-78
2022/07/26 02:07:59;;;;;;;3.50;1.50;;;27.80;48.20;;;;;;5055703;28;20500;-78
2022/07/26 02:10:59;;;;;;;2.40;1.50;;;27.80;48.10;;;;;;5055527;28;20447;-78
2022/07/26 02:13:16;;;;;;;1.70;1.33;;;27.70;48.00;;;;;;5055583;28;20494;-78
2022/07/26 02:15:44;;;;;;;1.67;1.30;;;27.70;48.30;;;;;;5068815;28;20484;-78
2022/07/26 02:18:12;;;;;;;3.33;1.43;;;27.80;48.10;;;;;;5060827;28;20413;-78
2022/07/26 02:20:40;;;;;;;3.83;2.00;;;27.80;47.90;;;;;;5054706;28;20508;-78
2022/07/26 02:23:08;;;;;;;1.67;1.40;;;27.70;47.90;;;;;;5055036;28;20543;-78
2022/07/26 02:25:36;;;;;;;3.80;1.90;;;27.70;47.80;;;;;;5055164;28;20451;-78
2022/07/26 02:28:05;;;;;;;2.90;1.37;;;27.70;48.00;;;;;;5055597;28;20451;-78
2022/07/26 02:30:34;;;;;;;1.60;1.30;;;27.70;47.80;;;;;;5062789;28;20469;-78
2022/07/26 02:33:02;;;;;;;4.17;1.63;;;27.70;47.80;;;;;;5071486;28;20421;-78
2022/07/26 02:35:30;;;;;;;2.17;1.50;;;27.70;47.70;;;;;;5055084;28;20492;-78
2022/07/26 02:38:02;;;;;;;2.10;1.53;;;27.60;47.80;;;;;;5055357;28;20421;-78
2022/07/26 02:40:30;;;;;;;1.53;1.40;;;27.60;47.80;;;;;;5055146;28;20409;-78
2022/07/26 02:42:58;;;;;;;3.30;1.73;;;27.60;47.60;;;;;;5055185;28;20530;-78
2022/07/26 02:45:26;;;;;;;2.30;1.50;;;27.60;47.80;;;;;;5054030;28;20425;-78
2022/07/26 02:47:55;;;;;;;1.87;1.37;;;27.60;47.70;;;;;;5060583;28;20459;-78
2022/07/26 02:50:25;;;;;;;3.90;1.50;;;27.60;47.70;;;;;;5067627;28;20443;-78
2022/07/26 02:52:53;;;;;;;2.37;1.70;;;27.60;47.70;;;;;;5055780;28;20425;-78
2022/07/26 02:55:22;;;;;;;1.63;1.50;;;27.60;47.60;;;;;;5053205;28;20425;-79
2022/07/26 02:57:50;;;;;;;1.67;1.20;;;27.60;47.70;;;;;;5054961;28;20503;-78
2022/07/26 03:00:19;;;;;;;2.30;1.13;;;27.60;47.60;;;;;;5054569;28;20488;-78
2022/07/26 03:02:47;;;;;;;2.17;1.60;;;27.60;47.50;;;;;;5057548;28;20463;-78
2022/07/26 03:05:17;;;;;;;1.97;1.80;;;27.60;47.50;;;;;;5073694;28;20477;-78
2022/07/26 03:07:44;;;;;;;2.07;1.50;;;27.60;47.70;;;;;;5074685;28;20449;-78
2022/07/26 03:10:12;;;;;;;1.90;1.30;;;27.60;47.40;;;;;;5074427;28;20550;-78
2022/07/26 03:12:41;;;;;;;4.47;1.23;;;27.50;47.40;;;;;;5073892;28;20416;-78
2022/07/26 03:15:09;;;;;;;1.47;1.17;;;27.50;47.60;;;;;;5073649;28;20436;-78
2022/07/26 03:17:37;;;;;;;2.40;1.90;;;27.50;47.60;;;;;;5074645;28;20433;-78
2022/07/26 03:20:06;;;;;;;2.80;1.80;;;27.50;47.40;;;;;;5073685;28;20423;-78
2022/07/26 03:22:35;;;;;;;1.30;1.17;;;27.50;47.50;;;;;;5073686;28;20492;-78
2022/07/26 03:25:03;;;;;;;1.47;1.37;;;27.50;47.40;;;;;;5053131;28;20517;-78
2022/07/26 03:27:31;;;;;;;4.00;1.37;;;27.50;47.40;;;;;;5054198;28;20454;-78
2022/07/26 03:29:59;;;;;;;4.90;1.67;;;27.50;47.40;;;;;;5053798;28;20459;-78
2022/07/26 03:32:26;;;;;;;4.30;1.87;;;27.50;47.40;;;;;;5053901;28;20417;-78
2022/07/26 03:34:54;;;;;;;3.03;1.57;;;27.50;47.30;;;;;;5053895;28;20494;-78
2022/07/26 03:37:22;;;;;;;2.20;1.70;;;27.50;47.40;;;;;;5058181;28;20475;-78
2022/07/26 03:39:51;;;;;;;1.77;1.50;;;27.50;47.40;;;;;;5071366;28;20525;-78
2022/07/26 03:42:19;;;;;;;2.63;1.53;;;27.40;47.20;;;;;;5053751;28;20443;-78
2022/07/26 03:44:47;;;;;;;3.73;1.33;;;27.40;47.20;;;;;;5054119;28;20454;-78
2022/07/26 03:47:15;;;;;;;2.27;1.40;;;27.40;47.20;;;;;;5054490;28;20829;-78
2022/07/26 03:49:43;;;;;;;1.60;1.50;;;27.40;47.20;;;;;;5053665;28;20561;-78
2022/07/26 03:52:11;;;;;;;2.80;1.50;;;27.40;47.30;;;;;;5054252;28;20423;-78
2022/07/26 03:54:39;;;;;;;2.13;1.37;;;27.40;47.30;;;;;;5067654;28;20480;-78
2022/07/26 03:57:07;;;;;;;2.20;1.10;;;27.40;47.10;;;;;;5060274;28;20549;-78
2022/07/26 03:59:35;;;;;;;1.33;1.23;;;27.40;47.30;;;;;;5054019;28;20434;-78
2022/07/26 04:02:03;;;;;;;3.70;1.53;;;27.40;47.20;;;;;;5054500;28;20442;-78
2022/07/26 04:04:31;;;;;;;2.13;1.50;;;27.40;47.20;;;;;;5057201;28;20490;-78
2022/07/26 04:06:58;;;;;;;2.83;1.50;;;27.40;47.00;;;;;;5056598;28;20413;-78
2022/07/26 04:09:30;;;;;;;1.30;1.20;;;27.40;47.20;;;;;;5068618;28;20506;-78
2022/07/26 04:11:58;;;;;;;3.13;1.30;;;27.40;47.10;;;;;;5076157;28;20469;-76
2022/07/26 04:14:27;;;;;;;1.40;1.27;;;27.40;47.00;;;;;;5073383;28;20552;-76
2022/07/26 04:16:55;;;;;;;2.00;1.20;;;27.40;47.20;;;;;;5072846;28;20606;-76
2022/07/26 04:19:23;;;;;;;2.77;1.83;;;27.40;46.90;;;;;;5073612;28;20489;-76
2022/07/26 04:21:51;;;;;;;2.20;1.53;;;27.40;47.10;;;;;;5072801;28;20408;-77
2022/07/26 04:24:18;;;;;;;1.87;1.60;;;27.40;46.70;;;;;;5072195;28;20452;-77
2022/07/26 04:26:52;;;;;;;3.20;1.80;;;27.40;47.00;;;;;;5061750;28;20437;-77
2022/07/26 04:29:19;;;;;;;1.83;1.17;;;27.40;46.80;;;;;;5053538;28;20465;-77
2022/07/26 04:31:48;;;;;;;2.57;1.53;;;27.40;47.00;;;;;;5061405;28;20500;-77
2022/07/26 04:34:16;;;;;;;1.90;1.63;;;27.40;47.10;;;;;;5059675;28;20474;-77
2022/07/26 04:36:44;;;;;;;2.00;1.63;;;27.40;47.70;;;;;;5057450;28;20434;-77
2022/07/26 04:39:12;;;;;;;1.80;1.40;;;27.40;46.90;;;;;;5061936;28;20462;-77
2022/07/26 04:41:39;;;;;;;2.70;1.83;;;27.30;47.30;;;;;;5076579;28;20428;-77
2022/07/26 04:44:07;;;;;;;1.97;1.50;;;27.30;47.10;;;;;;5075120;28;20536;-77
2022/07/26 04:46:36;;;;;;;2.70;1.60;;;27.30;47.10;;;;;;5073861;28;20437;-77
2022/07/26 04:49:05;;;;;;;1.30;1.20;;;27.30;47.60;;;;;;5073186;28;20420;-77
2022/07/26 04:51:33;;;;;;;2.40;1.27;;;27.30;47.20;;;;;;5073369;28;20850;-77
2022/07/26 04:54:00;;;;;;;2.20;1.53;;;27.30;47.20;;;;;;5072965;28;20428;-77
2022/07/26 04:56:28;;;;;;;3.30;1.53;;;27.30;46.90;;;;;;5070754;28;20468;-77
2022/07/26 04:58:56;;;;;;;1.77;1.00;;;27.20;46.90;;;;;;5069136;28;20426;-77
2022/07/26 05:01:24;;;;;;;3.23;1.53;;;27.20;47.20;;;;;;5052369;28;20437;-77
2022/07/26 05:03:52;;;;;;;1.67;1.53;;;27.30;47.00;;;;;;5052690;28;20436;-77
2022/07/26 05:06:21;;;;;;;1.80;1.20;;;27.20;47.30;;;;;;5051741;28;20983;-77
2022/07/26 05:08:50;;;;;;;1.70;1.37;;;27.20;47.20;;;;;;5052330;28;20429;-77
2022/07/26 05:11:18;;;;;;;2.70;1.30;;;27.20;47.10;;;;;;5052151;28;20456;-77
2022/07/26 05:13:46;;;;;;;1.40;1.30;;;27.20;47.30;;;;;;5063884;28;20515;-77
2022/07/26 05:16:13;;;;;;;2.20;1.30;;;27.20;47.20;;;;;;5057150;28;20448;-77
2022/07/26 05:18:42;;;;;;;2.60;1.30;;;27.20;47.20;;;;;;5051855;28;20455;-78
2022/07/26 05:21:16;;;;;;;1.73;1.63;;;27.20;47.20;;;;;;5052548;28;20435;-77
2022/07/26 05:23:45;;;;;;;1.67;1.40;;;27.30;47.50;;;;;;5052379;28;20472;-77
2022/07/26 05:26:13;;;;;;;3.00;1.30;;;27.30;47.00;;;;;;5052148;28;20557;-77
2022/07/26 05:28:41;;;;;;;1.53;1.10;;;27.30;47.30;;;;;;5052118;28;20447;-77
2022/07/26 05:31:09;;;;;;;1.60;1.40;;;27.30;47.00;;;;;;5071396;28;20448;-77
2022/07/26 05:33:37;;;;;;;1.63;1.53;;;27.30;47.20;;;;;;5054335;28;20440;-77
2022/07/26 05:36:05;;;;;;;1.50;1.33;;;27.30;47.10;;;;;;5051631;28;20541;-77
2022/07/26 05:38:33;;;;;;;3.03;1.37;;;27.30;47.30;;;;;;5051483;28;20421;-77
2022/07/26 05:41:03;;;;;;;1.97;1.30;;;27.30;46.90;;;;;;5051683;28;20447;-78
2022/07/26 05:43:31;;;;;;;1.30;1.20;;;27.30;47.20;;;;;;5051747;28;20445;-77
2022/07/26 05:46:09;;;;;;;2.70;1.73;;;27.40;47.10;;;;;;5052446;28;20459;-77
2022/07/26 05:48:37;;;;;;;2.00;1.67;;;27.40;46.70;;;;;;5071544;28;20420;-77
2022/07/26 05:51:05;;;;;;;1.57;1.20;;;27.40;47.00;;;;;;5051520;28;20441;-77
2022/07/26 05:53:33;;;;;;;1.37;1.27;;;27.30;47.10;;;;;;5051446;28;20477;-78
2022/07/26 05:56:03;;;;;;;1.30;1.20;;;27.40;47.20;;;;;;5051184;28;20467;-77
2022/07/26 05:58:31;;;;;;;1.90;1.40;;;27.40;46.80;;;;;;5051540;28;20457;-77
2022/07/26 06:00:59;;;;;;;1.17;1.07;;;27.40;47.00;;;;;;5051295;28;20417;-77
2022/07/26 06:03:28;;;;;;;1.23;1.10;;;27.40;47.10;;;;;;5054524;28;20470;-77
2022/07/26 06:05:57;;;;;;;2.23;1.30;;;27.40;46.80;;;;;;5061986;28;20476;-77
2022/07/26 06:08:25;;;;;;;2.13;1.10;;;27.40;46.90;;;;;;5070977;28;20423;-77
2022/07/26 06:10:53;;;;;;;1.50;1.40;;;27.40;47.30;;;;;;5070708;28;20983;-78
2022/07/26 06:13:22;;;;;;;1.67;1.47;;;27.50;47.20;;;;;;5070971;28;20432;-78
2022/07/26 06:15:50;;;;;;;1.37;1.27;;;27.50;47.20;;;;;;5070593;28;20503;-77
2022/07/26 06:18:18;;;;;;;2.97;1.67;;;27.50;47.20;;;;;;5070921;28;20445;-77
2022/07/26 06:20:47;;;;;;;1.23;1.13;;;27.50;47.20;;;;;;5069990;28;20570;-77
2022/07/26 06:23:14;;;;;;;1.83;1.43;;;27.50;47.10;;;;;;5070640;28;20459;-77
2022/07/26 06:25:42;;;;;;;3.00;1.70;;;27.50;47.20;;;;;;5069376;28;20480;-77
2022/07/26 06:28:11;;;;;;;1.43;1.30;;;27.50;47.20;;;;;;5070784;28;20423;-77
2022/07/26 06:30:41;;;;;;;1.60;1.30;;;27.50;47.30;;;;;;5070698;28;20519;-77
2022/07/26 06:33:09;;;;;;;1.50;1.40;;;27.50;47.40;;;;;;5070255;28;20444;-77
2022/07/26 06:35:37;;;;;;;1.07;1.00;;;27.60;47.00;;;;;;5069948;28;20535;-77
2022/07/26 06:38:06;;;;;;;1.40;1.30;;;27.50;47.20;;;;;;5069420;28;20427;-77
2022/07/26 06:40:33;;;;;;;2.43;1.47;;;27.60;47.20;;;;;;5069847;28;20432;-77
2022/07/26 06:43:01;;;;;;;1.40;1.30;;;27.60;47.20;;;;;;5050281;28;20529;-77
2022/07/26 06:45:31;;;;;;;1.30;1.20;;;27.60;47.10;;;;;;5049747;28;20466;-77
2022/07/26 06:48:01;;;;;;;1.50;1.40;;;27.60;47.20;;;;;;5050244;28;20451;-78
2022/07/26 06:50:28;;;;;;;2.57;1.43;;;27.60;47.00;;;;;;5049945;28;20441;-77
2022/07/26 06:52:56;;;;;;;1.93;1.30;;;27.60;47.30;;;;;;5050052;28;20442;-77
2022/07/26 06:55:24;;;;;;;1.80;1.50;;;27.60;47.20;;;;;;5058932;28;20527;-77
2022/07/26 06:57:51;;;;;;;1.67;1.30;;;27.60;47.20;;;;;;5070346;28;20434;-77
2022/07/26 07:00:19;;;;;;;1.40;1.30;;;27.70;47.00;;;;;;5070187;28;20404;-78
2022/07/26 07:02:47;;;;;;;3.03;1.47;;;27.70;47.10;;;;;;5070576;28;20756;-78
2022/07/26 07:05:16;;;;;;;2.37;1.30;;;27.70;47.00;;;;;;5069887;28;20436;-78
2022/07/26 07:07:44;;;;;;;1.70;1.27;;;27.70;47.10;;;;;;5077261;28;20435;-78
2022/07/26 07:10:13;;;;;;;2.23;1.10;;;27.80;47.40;;;;;;5086165;28;20408;-79
2022/07/26 07:12:43;;;;;;;1.70;1.10;;;27.80;47.40;;;;;;5076630;28;20523;-78
2022/07/26 07:15:11;;;;;;;2.10;1.13;;;27.80;47.00;;;;;;5064160;28;20542;-78
2022/07/26 07:17:39;;;;;;;2.10;1.40;;;27.80;47.20;;;;;;5057328;28;20458;-78
2022/07/26 07:20:07;;;;;;;1.93;1.30;;;27.80;47.30;;;;;;5056894;28;20496;-78
2022/07/26 07:22:36;;;;;;;2.00;1.20;;;27.80;47.20;;;;;;5056455;28;20413;-78
2022/07/26 07:25:05;;;;;;;2.30;1.00;;;27.80;47.20;;;;;;5054444;28;20836;-78
2022/07/26 07:27:33;;;;;;;1.13;1.03;;;27.90;47.40;;;;;;5055588;28;20473;-78
2022/07/26 07:30:01;;;;;;;0.90;0.90;;;27.90;47.10;;;;;;5073380;28;20461;-78
2022/07/26 07:32:30;;;;;;;1.53;1.10;;;27.90;47.00;;;;;;5056863;28;20470;-78
2022/07/26 07:34:59;;;;;;;1.23;1.00;;;27.90;47.10;;;;;;5051933;28;20539;-78
2022/07/26 07:37:27;;;;;;;1.37;1.20;;;28.00;47.10;;;;;;5056009;28;20451;-78
2022/07/26 07:40:16;;;;;;;1.20;1.20;;;28.00;47.10;;;;;;5057582;28;20410;-78
2022/07/26 07:42:44;;;;;;;2.13;0.90;;;28.10;47.00;;;;;;5080381;28;20442;-78
2022/07/26 07:45:12;;;;;;;1.70;1.17;;;28.10;47.00;;;;;;5083515;28;20542;-77
2022/07/26 07:47:40;;;;;;;1.53;0.97;;;28.20;46.70;;;;;;5067671;28;20523;-78
2022/07/26 07:50:08;;;;;;;1.87;1.10;;;28.30;46.70;;;;;;5055457;28;20488;-78
2022/07/26 07:52:36;;;;;;;1.23;0.90;;;28.30;46.80;;;;;;5055894;28;20537;-78
2022/07/26 07:55:08;;;;;;;1.00;0.90;;;28.30;46.50;;;;;;5055450;28;20433;-78
2022/07/26 07:57:57;;;;;;;0.93;0.93;;;28.40;46.50;;;;;;5059771;28;20464;-78
2022/07/26 08:00:25;;;;;;;2.00;0.93;;;28.40;46.50;;;;;;5076701;28;20408;-78
2022/07/26 08:02:54;;;;;;;1.90;0.90;;;28.40;46.60;;;;;;5074942;28;20942;-78
2022/07/26 08:05:22;;;;;;;0.80;0.80;;;28.40;46.50;;;;;;5074787;28;20421;-78
2022/07/26 08:07:51;;;;;;;1.67;1.10;;;28.40;46.40;;;;;;5075368;28;20432;-78
2022/07/26 08:10:19;;;;;;;2.30;0.90;;;28.50;46.50;;;;;;5075771;28;20409;-78
2022/07/26 08:12:47;;;;;;;0.93;0.80;;;28.50;46.50;;;;;;5075385;28;20473;-78
2022/07/26 08:15:20;;;;;;;1.67;1.00;;;28.60;46.60;;;;;;5075497;28;20552;-78
2022/07/26 08:17:48;;;;;;;1.30;1.00;;;28.70;46.30;;;;;;5075667;28;20432;-78
2022/07/26 08:20:20;;;;;;;1.57;0.97;;;28.70;46.40;;;;;;5067577;28;20430;-78
2022/07/26 08:22:51;;;;;;;1.23;0.83;;;28.70;46.40;;;;;;5074857;28;20429;-78
2022/07/26 08:25:19;;;;;;;1.00;0.80;;;28.60;46.20;;;;;;5076707;28;20419;-78
2022/07/26 08:27:47;;;;;;;0.80;0.80;;;28.70;46.50;;;;;;5081469;28;20445;-79
2022/07/26 08:30:31;;;;;;;0.80;0.80;;;28.60;46.40;;;;;;5083679;28;20397;-78
2022/07/26 08:32:59;;;;;;;2.10;1.00;;;28.70;46.40;;;;;;5080189;28;20581;-79
2022/07/26 08:35:28;;;;;;;2.53;1.00;;;28.70;46.40;;;;;;5079280;28;20435;-78
2022/07/26 08:37:56;;;;;;;0.80;0.70;;;28.70;46.30;;;;;;5076166;28;20431;-79
2022/07/26 08:40:23;;;;;;;1.30;1.00;;;28.70;46.40;;;;;;5055847;28;20446;-77
2022/07/26 08:42:51;;;;;;;0.70;0.70;;;28.70;46.30;;;;;;5053209;28;20441;-77
2022/07/26 08:45:22;;;;;;;2.10;0.93;;;28.70;46.30;;;;;;5052897;28;20429;-77
2022/07/26 08:47:52;;;;;;;1.77;0.90;;;28.90;46.00;;;;;;5052949;28;20417;-77
2022/07/26 08:50:40;;;;;;;0.80;0.80;;;29.00;46.30;;;;;;5054801;28;20431;-78
2022/07/26 08:53:10;;;;;;;1.97;1.00;;;29.10;46.10;;;;;;5073440;28;20450;-78
2022/07/26 08:55:38;;;;;;;1.83;0.90;;;29.10;45.90;;;;;;5056644;28;20503;-78
2022/07/26 08:58:26;;;;;;;1.53;0.87;;;29.20;45.80;;;;;;5084205;28;20413;-78
2022/07/26 09:01:06;;;;;;;0.97;0.80;;;29.30;45.80;;;;;;5078243;28;20533;-78
2022/07/26 09:03:37;;;;;;;1.13;0.80;;;29.50;45.80;;;;;;5082874;28;20458;-78
2022/07/26 09:06:15;;;;;;;0.93;0.83;;;29.60;45.60;;;;;;5075641;28;20426;-78
2022/07/26 09:08:44;;;;;;;1.10;0.70;;;29.80;45.40;;;;;;5073417;28;20449;-78
2022/07/26 09:11:28;;;;;;;0.70;0.70;;;29.90;45.30;;;;;;5056024;28;20443;-78
2022/07/26 09:13:59;;;;;;;1.27;0.73;;;30.20;45.20;;;;;;5069186;28;20473;-78
2022/07/26 09:16:27;;;;;;;1.07;0.70;;;30.30;44.70;;;;;;5072944;28;20441;-78
2022/07/26 09:18:59;;;;;;;1.00;0.77;;;30.40;44.60;;;;;;5072456;28;20438;-78
2022/07/26 09:21:30;;;;;;;0.80;0.80;;;30.60;44.50;;;;;;5074554;28;20442;-79
2022/07/26 09:23:58;;;;;;;1.83;0.80;;;30.70;44.00;;;;;;5075672;28;20541;-79
2022/07/26 09:26:26;;;;;;;1.37;0.87;;;30.80;44.20;;;;;;5069524;28;20568;-78
2022/07/26 09:29:05;;;;;;;1.40;0.80;;;30.90;44.10;;;;;;5077259;28;20524;-78
2022/07/26 09:31:34;;;;;;;0.80;0.80;;;31.10;43.70;;;;;;5077375;28;20478;-79
2022/07/26 09:34:03;;;;;;;0.70;0.60;;;31.10;43.40;;;;;;5076799;28;20477;-79
2022/07/26 09:36:32;;;;;;;0.70;0.70;;;31.20;43.50;;;;;;5078579;28;20456;-78
2022/07/26 09:39:02;;;;;;;0.70;0.70;;;31.30;43.50;;;;;;5077842;28;20441;-78
2022/07/26 09:41:30;;;;;;;1.10;0.83;;;31.30;43.30;;;;;;5076552;28;20540;-78
2022/07/26 09:44:00;;;;;;;0.73;0.73;;;31.10;43.30;;;;;;5061999;28;20503;-77
2022/07/26 09:46:28;;;;;;;0.67;0.67;;;31.00;43.40;;;;;;5055499;28;20529;-79
2022/07/26 09:48:59;;;;;;;0.83;0.70;;;30.90;43.70;;;;;;5052205;28;20457;-78
2022/07/26 09:51:40;;;;;;;4.30;1.00;;;30.80;44.50;;;;;;5060625;28;20831;-76
2022/07/26 09:54:08;;;;;;;1.07;0.80;;;30.80;44.10;;;;;;5070857;28;20471;-80
2022/07/26 09:56:45;;;;;;;1.00;0.90;;;30.90;44.30;;;;;;5071287;28;20431;-76
2022/07/26 09:59:14;;;;;;;1.10;0.80;;;31.00;44.40;;;;;;5056711;28;20464;-76
2022/07/26 10:01:42;;;;;;;3.23;0.87;;;31.30;44.40;;;;;;5072396;28;20476;-75
2022/07/26 10:04:10;;;;;;;4.90;0.90;;;31.50;43.60;;;;;;5073196;28;20537;-77
2022/07/26 10:06:40;;;;;;;5.40;0.80;;;31.60;42.50;;;;;;5071804;28;20442;-75
2022/07/26 10:09:08;;;;;;;1.23;0.80;;;31.20;39.90;;;;;;5072435;28;20438;-75
2022/07/26 10:11:38;;;;;;;0.83;0.83;;;30.80;39.10;;;;;;5072362;28;20473;-75
2022/07/26 10:14:33;;;;;;;2.60;1.20;;;30.60;38.40;;;;;;5069736;28;20484;-76
2022/07/26 10:17:01;;;;;;;1.87;0.83;;;30.20;37.90;;;;;;5066914;28;20437;-76
2022/07/26 10:19:39;;;;;;;3.50;1.00;;;30.10;37.80;;;;;;5072090;28;20412;-76
2022/07/26 10:22:26;;;;;;;5.03;0.97;;;30.00;38.10;;;;;;5052331;28;20417;-75
2022/07/26 10:24:54;;;;;;;1.73;0.80;;;30.10;37.90;;;;;;5056586;28;20537;-76
2022/07/26 10:27:37;;;;;;;2.87;1.10;;;30.20;38.40;;;;;;5072135;28;20441;-75
2022/07/26 10:30:23;;;;;;;3.23;1.27;;;30.20;38.80;;;;;;5065100;28;20456;-77
2022/07/26 10:33:00;;;;;;;4.63;1.10;;;30.20;38.70;;;;;;5052520;28;21003;-78
2022/07/26 10:35:32;;;;;;;4.37;1.20;;;30.30;38.50;;;;;;5052763;28;20446;-77
2022/07/26 10:38:02;;;;;;;4.43;1.20;;;30.30;38.30;;;;;;5053342;28;20439;-77
2022/07/26 10:40:31;;;;;;;0.97;0.90;;;30.40;38.10;;;;;;5058677;28;20537;-78
2022/07/26 10:43:08;;;;;;;0.93;0.80;;;30.40;38.20;;;;;;5073319;28;20409;-77
2022/07/26 10:46:23;;;;;;;3.10;1.10;;;30.50;38.00;;;;;;5073567;28;20433;-77
2022/07/26 10:48:57;;;;;;;3.57;0.97;;;30.70;38.00;;;;;;5058784;28;20465;-80
2022/07/26 10:51:27;;;;;;;1.97;1.20;;;31.00;37.30;;;;;;5053249;28;20532;-77
2022/07/26 10:54:04;;;;;;;2.20;1.10;;;31.10;37.00;;;;;;5052262;28;20505;-78
2022/07/26 10:56:32;;;;;;;4.03;1.10;;;31.30;37.00;;;;;;5065774;28;20824;-79
2022/07/26 10:59:01;;;;;;;2.73;0.90;;;31.40;36.60;;;;;;5071935;28;20470;-77
2022/07/26 11:01:33;;;;;;;1.80;0.87;;;31.40;36.60;;;;;;5059607;28;20505;-78
2022/07/26 11:04:01;;;;;;;5.07;1.10;;;31.30;36.80;;;;;;5064708;28;20453;-77
2022/07/26 11:06:30;;;;;;;1.30;0.90;;;31.10;37.10;;;;;;5080441;28;20476;-78
2022/07/26 11:08:58;;;;;;;4.83;2.00;;;31.00;37.70;;;;;;5066247;28;20529;-78
2022/07/26 11:11:31;;;;;;;2.20;1.40;;;31.00;37.60;;;;;;5074493;28;20528;-78
2022/07/26 11:14:06;;;;;;;7.63;1.73;;;30.90;37.60;;;;;;5062916;28;20448;-78
2022/07/26 11:16:39;;;;;;;3.23;1.60;;;30.80;37.60;;;;;;5058556;28;20413;-78
2022/07/26 11:19:15;;;;;;;5.60;1.50;;;31.00;37.30;;;;;;5059894;28;20500;-78
2022/07/26 11:21:44;;;;;;;5.20;1.77;;;31.00;37.20;;;;;;5063164;28;20445;-78
2022/07/26 11:24:11;;;;;;;6.03;1.50;;;31.00;37.20;;;;;;5069504;28;20488;-78
2022/07/26 11:26:43;;;;;;;5.50;1.50;;;31.00;37.40;;;;;;5064607;28;20440;-78
2022/07/26 11:29:11;;;;;;;3.60;1.33;;;31.00;37.50;;;;;;5066569;28;20480;-81
2022/07/26 11:31:45;;;;;;;4.23;1.60;;;30.90;37.80;;;;;;5080840;28;20448;-79
2022/07/26 11:34:27;;;;;;;7.00;1.70;;;30.90;37.50;;;;;;5076840;28;20516;-79
2022/07/26 11:36:55;;;;;;;5.10;2.03;;;30.80;38.10;;;;;;5076167;28;20470;-79
2022/07/26 11:39:24;;;;;;;8.27;1.83;;;30.70;37.60;;;;;;5061766;28;20464;-80
2022/07/26 11:41:57;;;;;;;6.47;2.30;;;30.60;37.60;;;;;;5068717;28;20447;-78
2022/07/26 11:44:24;;;;;;;6.10;2.17;;;30.50;37.60;;;;;;5075668;28;20999;-78
2022/07/26 11:46:52;;;;;;;4.47;2.00;;;30.50;37.60;;;;;;5078550;28;20440;-78
2022/07/26 11:49:21;;;;;;;4.13;1.40;;;30.50;37.60;;;;;;5077364;28;20476;-82
2022/07/26 11:52:03;;;;;;;7.80;1.80;;;30.50;37.40;;;;;;5064191;28;20485;-80
2022/07/26 11:54:32;;;;;;;3.37;1.77;;;30.60;37.20;;;;;;5059022;28;20444;-80
2022/07/26 11:57:02;;;;;;;3.63;1.60;;;30.80;37.30;;;;;;5077895;28;20469;-79
2022/07/26 11:59:31;;;;;;;7.87;2.27;;;31.10;36.10;;;;;;5070694;28;20514;-79
2022/07/26 12:01:59;;;;;;;7.20;1.80;;;31.20;35.50;;;;;;5049446;28;20433;-78
2022/07/26 12:04:28;;;;;;;4.00;1.73;;;31.40;35.40;;;;;;5071986;28;20485;-77
2022/07/26 12:06:56;;;;;;;4.63;1.83;;;31.70;35.20;;;;;;5052268;28;20443;-77
2022/07/26 12:09:29;;;;;;;3.33;1.50;;;32.00;34.50;;;;;;5053297;28;20453;-76
2022/07/26 12:11:57;;;;;;;4.20;1.50;;;31.90;34.50;;;;;;5052385;28;20477;-76
2022/07/26 12:14:26;;;;;;;4.60;1.67;;;31.60;34.70;;;;;;5053380;28;20480;-76
2022/07/26 12:16:54;;;;;;;2.50;1.20;;;31.50;35.00;;;;;;5053549;28;20439;-77
2022/07/26 12:19:24;;;;;;;6.57;2.10;;;31.40;35.50;;;;;;5055269;28;20461;-76
2022/07/26 12:21:54;;;;;;;6.80;2.30;;;31.30;35.50;;;;;;5073622;28;20427;-77
2022/07/26 12:24:41;;;;;;;6.00;2.07;;;31.30;35.50;;;;;;5071133;28;20451;-77
2022/07/26 12:27:11;;;;;;;2.80;1.50;;;31.40;35.40;;;;;;5053588;28;20446;-76
2022/07/26 12:29:41;;;;;;;5.13;1.80;;;31.50;35.00;;;;;;5053644;28;20453;-77
2022/07/26 12:32:11;;;;;;;2.90;1.63;;;31.80;34.70;;;;;;5075374;28;20866;-76
2022/07/26 12:34:40;;;;;;;4.80;1.60;;;33.30;32.50;;;;;;5074503;28;20473;-76
2022/07/26 12:37:13;;;;;;;1.97;1.23;;;34.10;31.00;;;;;;5071883;28;20596;-75
2022/07/26 12:39:42;;;;;;;5.87;1.77;;;33.90;30.80;;;;;;5071342;28;20446;-76
2022/07/26 12:42:34;;;;;;;7.73;1.83;;;33.70;31.20;;;;;;5054036;28;20441;-81
2022/07/26 12:45:08;;;;;;;5.20;1.60;;;33.10;32.20;;;;;;5058531;28;20512;-77
2022/07/26 12:47:37;;;;;;;12.97;1.70;;;32.80;32.30;;;;;;5056664;28;20453;-78
2022/07/26 12:50:05;;;;;;;3.77;1.53;;;32.40;32.90;;;;;;5055243;28;20446;-77
2022/07/26 12:52:33;;;;;;;10.53;1.93;;;32.70;33.10;;;;;;5052994;28;21011;-77
2022/07/26 12:55:01;;;;;;;4.97;1.53;;;34.80;30.00;;;;;;5061047;28;20482;-77
2022/07/26 12:57:29;;;;;;;5.63;1.53;;;34.70;29.00;;;;;;5069229;28;20516;-77
2022/07/26 12:59:57;;;;;;;6.33;1.40;;;34.10;29.80;;;;;;5073937;28;20465;-78
2022/07/26 13:02:26;;;;;;;7.27;1.50;;;33.70;31.10;;;;;;5077819;28;20525;-78